Time;durP1;ratioP1;P1;durP2;ratioP2;P2;SDS_P1;SDS_P2;PMS_P1;PMS_P2;Temp;Humidity;BMP_temperature;BMP_pressure;BME280_temperature;BME280_humidity;BME280_pressure;Samples;Min_cycle;Max_cycle;Signal;HPM_P1;HPM_P2
2023/03/11 00:00:12;;;;;;;72.40;15.30;;;3.60;97.60;;;;;;5063599;28;21080;-59
2023/03/11 00:02:39;;;;;;;44.87;9.20;;;;;;;;;;5067272;28;20825;-59
2023/03/11 00:05:07;;;;;;;65.17;14.07;;;3.60;97.60;;;;;;5051491;28;20543;-59
2023/03/11 00:07:33;;;;;;;43.57;9.20;;;3.60;97.60;;;;;;5076681;28;20474;-59
2023/03/11 00:10:01;;;;;;;67.70;13.17;;;3.70;97.90;;;;;;5063597;28;20475;-59
2023/03/11 00:12:28;;;;;;;45.40;10.00;;;;;;;;;;5065057;28;20470;-59
2023/03/11 00:14:55;;;;;;;54.53;11.30;;;3.90;97.80;;;;;;5065012;28;20892;-58
2023/03/11 00:17:22;;;;;;;39.70;8.17;;;2.50;97.00;;;;;;5059386;28;20835;-58
2023/03/11 00:19:48;;;;;;;29.23;6.27;;;3.80;97.60;;;;;;5062576;28;20803;-58
2023/03/11 00:22:15;;;;;;;62.67;11.83;;;3.90;97.60;;;;;;5058400;28;21050;-59
2023/03/11 00:24:42;;;;;;;63.47;10.57;;;;;;;;;;5062601;28;21419;-59
2023/03/11 00:27:10;;;;;;;64.13;14.00;;;3.90;97.20;;;;;;5066030;28;20473;-59
2023/03/11 00:29:37;;;;;;;40.57;9.23;;;3.90;97.30;;;;;;5069334;28;20484;-59
2023/03/11 00:32:04;;;;;;;50.00;12.10;;;3.80;97.10;;;;;;5055240;28;20482;-59
2023/03/11 00:34:30;;;;;;;26.27;7.17;;;3.80;97.10;;;;;;5068879;28;20473;-58
2023/03/11 00:36:57;;;;;;;53.33;11.87;;;;;;;;;;5071045;28;20477;-58
2023/03/11 00:39:24;;;;;;;33.87;7.40;;;;;;;;;;5064782;28;20474;-58
2023/03/11 00:41:52;;;;;;;37.23;8.27;;;3.80;96.90;;;;;;5065692;28;20547;-58
2023/03/11 00:44:20;;;;;;;43.83;11.17;;;3.80;96.70;;;;;;5075639;28;21197;-59
2023/03/11 00:46:47;;;;;;;45.43;7.60;;;3.70;96.50;;;;;;5063786;28;21006;-58
2023/03/11 00:49:14;;;;;;;46.93;10.37;;;;;;;;;;5068142;28;20473;-59
2023/03/11 00:51:41;;;;;;;34.20;8.10;;;;;;;;;;5071086;28;21043;-59
2023/03/11 00:54:07;;;;;;;46.10;11.20;;;3.60;96.30;;;;;;5065752;28;20540;-59
2023/03/11 00:56:34;;;;;;;27.20;6.73;;;3.50;96.30;;;;;;5058720;28;20474;-59
2023/03/11 00:59:01;;;;;;;56.60;12.20;;;3.50;96.30;;;;;;5068855;28;20496;-59
2023/03/11 01:01:29;;;;;;;45.53;8.77;;;3.50;96.30;;;;;;5063288;28;20483;-59
2023/03/11 01:03:56;;;;;;;51.30;10.23;;;;;;;;;;5078208;28;20491;-59
2023/03/11 01:06:23;;;;;;;46.10;8.77;;;;;;;;;;5070769;28;21007;-60
2023/03/11 01:08:50;;;;;;;42.03;8.07;;;;;;;;;;5069171;28;20478;-59
2023/03/11 01:11:16;;;;;;;40.37;8.53;;;3.50;96.30;;;;;;5044447;28;21033;-60
2023/03/11 01:13:43;;;;;;;42.80;9.90;;;3.50;96.20;;;;;;5079133;28;21263;-59
2023/03/11 01:16:10;;;;;;;53.63;11.70;;;3.50;96.30;;;;;;5065507;28;21042;-59
2023/03/11 01:18:38;;;;;;;30.60;8.10;;;;;;;;;;5066604;28;20493;-59
2023/03/11 01:21:05;;;;;;;77.27;15.80;;;3.40;96.10;;;;;;5074652;28;20478;-59
2023/03/11 01:23:32;;;;;;;42.50;11.07;;;3.40;96.00;;;;;;5068973;28;20550;-59
2023/03/11 01:25:58;;;;;;;61.13;14.23;;;3.50;96.10;;;;;;5060464;28;20477;-59
2023/03/11 01:28:25;;;;;;;32.63;8.30;;;3.40;96.00;;;;;;5072067;28;20511;-59
2023/03/11 01:30:52;;;;;;;40.53;9.20;;;;;;;;;;5065839;28;20478;-60
2023/03/11 01:33:20;;;;;;;38.67;8.30;;;3.40;95.80;;;;;;5066891;28;20482;-59
2023/03/11 01:35:48;;;;;;;41.47;7.67;;;3.40;95.70;;;;;;5059229;28;21232;-60
2023/03/11 01:38:14;;;;;;;45.10;7.70;;;3.30;96.00;;;;;;5069101;28;20470;-59
2023/03/11 01:40:42;;;;;;;49.23;8.90;;;;;;;;;;5066422;28;20489;-59
2023/03/11 01:43:24;;;;;;;61.30;13.10;;;;;;;;;;5069989;28;20541;-59
2023/03/11 01:46:12;;;;;;;49.33;8.43;;;3.30;95.80;;;;;;5045474;28;20483;-59
2023/03/11 01:48:39;;;;;;;49.20;7.90;;;3.30;95.90;;;;;;5052353;28;20475;-59
2023/03/11 01:51:07;;;;;;;68.33;14.27;;;;;;;;;;5047086;28;20831;-59
2023/03/11 01:53:35;;;;;;;58.87;11.27;;;;;;;;;;5065896;28;20903;-59
2023/03/11 01:56:03;;;;;;;57.73;9.50;;;3.40;95.80;;;;;;5068201;28;20504;-60
2023/03/11 01:58:35;;;;;;;40.83;8.53;;;3.40;95.90;;;;;;5044208;28;20975;-59
2023/03/11 02:01:03;;;;;;;64.03;14.70;;;;;;;;;;5060386;28;20478;-59
2023/03/11 02:03:32;;;;;;;43.47;9.80;;;3.30;95.60;;;;;;5069150;28;20505;-59
2023/03/11 02:06:02;;;;;;;45.20;12.23;;;3.30;95.80;;;;;;5058843;28;20796;-59
2023/03/11 02:08:33;;;;;;;43.13;8.50;;;3.20;96.20;;;;;;5071199;28;20792;-59
2023/03/11 02:11:03;;;;;;;43.50;10.10;;;3.30;96.10;;;;;;5070734;28;20499;-59
2023/03/11 02:13:31;;;;;;;38.20;8.60;;;3.30;96.20;;;;;;5070581;28;20833;-60
2023/03/11 02:15:59;;;;;;;58.63;11.37;;;;;;;;;;5056394;28;20754;-60
2023/03/11 02:18:26;;;;;;;32.97;7.27;;;3.20;96.10;;;;;;5055327;28;20694;-60
2023/03/11 02:20:58;;;;;;;43.33;9.90;;;3.10;96.00;;;;;;5058845;28;20607;-59
2023/03/11 02:23:27;;;;;;;29.40;6.53;;;;;;;;;;5057762;28;21491;-60
2023/03/11 02:26:01;;;;;;;54.97;9.47;;;3.10;95.80;;;;;;5055954;28;20563;-59
2023/03/11 02:28:30;;;;;;;25.03;6.53;;;;;;;;;;5048525;28;20880;-60
2023/03/11 02:30:57;;;;;;;71.60;13.27;;;;;;;;;;5068558;28;20471;-59
2023/03/11 02:33:28;;;;;;;46.70;9.30;;;;;;;;;;5071937;28;21188;-59
2023/03/11 02:35:56;;;;;;;48.43;9.20;;;2.90;96.40;;;;;;5066582;28;20568;-60
2023/03/11 02:38:23;;;;;;;41.13;8.57;;;;;;;;;;5066961;28;20557;-60
2023/03/11 02:40:55;;;;;;;46.83;9.10;;;;;;;;;;5059743;28;20480;-60
2023/03/11 02:43:26;;;;;;;41.33;8.60;;;;;;;;;;5059975;28;20451;-59
2023/03/11 02:45:56;;;;;;;54.33;9.83;;;2.00;96.00;;;;;;5060870;28;20478;-60
2023/03/11 02:48:24;;;;;;;47.10;7.30;;;;;;;;;;5072078;28;20492;-59
2023/03/11 02:50:51;;;;;;;51.47;9.17;;;3.10;96.40;;;;;;5063244;28;20478;-59
2023/03/11 02:53:19;;;;;;;49.50;10.00;;;3.00;96.20;;;;;;5063226;28;20531;-59
2023/03/11 02:55:46;;;;;;;52.37;9.97;;;3.10;96.30;;;;;;5060095;28;21278;-59
2023/03/11 02:58:13;;;;;;;70.33;11.43;;;;;;;;;;5055771;28;20996;-59
2023/03/11 03:00:40;;;;;;;41.27;7.97;;;;;;;;;;5052042;28;20478;-58
2023/03/11 03:03:09;;;;;;;105.80;17.00;;;2.70;96.10;;;;;;5062993;28;20906;-59
2023/03/11 03:05:36;;;;;;;43.77;9.13;;;;;;;;;;5058000;28;20477;-59
2023/03/11 03:08:03;;;;;;;76.47;14.40;;;;;;;;;;5054236;28;20478;-60
2023/03/11 03:10:30;;;;;;;42.20;9.97;;;2.50;96.60;;;;;;5051204;28;20603;-58
2023/03/11 03:12:57;;;;;;;70.33;12.67;;;;;;;;;;5049599;28;21006;-59
2023/03/11 03:15:24;;;;;;;68.57;16.30;;;2.70;97.10;;;;;;5057168;28;20509;-59
2023/03/11 03:17:51;;;;;;;54.27;13.77;;;;;;;;;;5052814;28;20555;-59
2023/03/11 03:20:21;;;;;;;45.33;10.43;;;2.90;96.80;;;;;;5071715;28;20485;-60
2023/03/11 03:22:49;;;;;;;53.60;10.80;;;;;;;;;;5068147;28;20570;-59
2023/03/11 03:25:15;;;;;;;45.10;7.97;;;2.90;96.50;;;;;;5062135;28;20830;-59
2023/03/11 03:27:42;;;;;;;29.90;7.40;;;;;;;;;;5069336;28;20487;-60
2023/03/11 03:30:11;;;;;;;54.90;9.83;;;2.60;96.20;;;;;;5070773;28;20944;-59
2023/03/11 03:32:38;;;;;;;51.97;9.93;;;2.50;96.50;;;;;;5062050;28;20804;-60
2023/03/11 03:35:05;;;;;;;67.60;12.10;;;;;;;;;;5054837;28;20499;-59
2023/03/11 03:37:35;;;;;;;34.40;6.23;;;2.40;97.20;;;;;;5074711;28;20523;-59
2023/03/11 03:40:06;;;;;;;77.63;14.23;;;;;;;;;;5061985;28;20470;-59
2023/03/11 03:42:33;;;;;;;44.80;10.10;;;;;;;;;;5072504;28;20948;-59
2023/03/11 03:45:00;;;;;;;58.27;10.77;;;;;;;;;;5075382;28;20535;-59
2023/03/11 03:47:27;;;;;;;35.90;7.17;;;2.00;97.60;;;;;;5061011;28;20482;-60
2023/03/11 03:49:54;;;;;;;43.80;8.67;;;;;;;;;;5062159;28;20508;-59
2023/03/11 03:52:21;;;;;;;32.07;6.90;;;;;;;;;;5069912;28;20525;-59
2023/03/11 03:54:49;;;;;;;37.07;7.00;;;2.10;97.60;;;;;;5073075;28;20481;-59
2023/03/11 03:57:16;;;;;;;30.90;7.60;;;2.20;97.50;;;;;;5064357;28;20477;-59
2023/03/11 03:59:43;;;;;;;34.37;8.40;;;2.20;97.40;;;;;;5075084;28;20486;-59
2023/03/11 04:02:09;;;;;;;45.90;11.53;;;2.10;97.30;;;;;;5037170;28;20491;-59
2023/03/11 04:04:36;;;;;;;34.67;7.47;;;2.10;97.40;;;;;;5062039;28;20490;-59
2023/03/11 04:07:04;;;;;;;49.50;11.03;;;;;;;;;;5052001;28;20970;-59
2023/03/11 04:09:31;;;;;;;41.63;8.43;;;2.00;97.40;;;;;;5055757;28;20478;-60
2023/03/11 04:11:59;;;;;;;55.30;13.00;;;2.10;97.60;;;;;;5075612;28;20486;-59
2023/03/11 04:14:27;;;;;;;33.63;7.10;;;;;;;;;;5063183;28;20489;-60
2023/03/11 04:16:53;;;;;;;43.80;7.93;;;-0.60;96.20;;;;;;5074610;28;20486;-59
2023/03/11 04:19:20;;;;;;;34.87;7.63;;;;;;;;;;5064702;28;20858;-60
2023/03/11 04:21:47;;;;;;;33.07;7.50;;;2.30;97.30;;;;;;5043491;28;20468;-59
2023/03/11 04:24:14;;;;;;;51.47;8.80;;;;;;;;;;5054374;28;20513;-59
2023/03/11 04:26:41;;;;;;;40.83;8.23;;;2.20;97.20;;;;;;5064198;28;20994;-59
2023/03/11 04:29:09;;;;;;;73.43;12.53;;;;;;;;;;5071604;28;20486;-60
2023/03/11 04:31:36;;;;;;;33.40;7.40;;;;;;;;;;5071531;28;20908;-59
2023/03/11 04:34:03;;;;;;;72.50;14.53;;;;;;;;;;5069786;28;20493;-59
2023/03/11 04:36:30;;;;;;;31.43;7.80;;;2.20;97.20;;;;;;5054825;28;20787;-60
2023/03/11 04:38:57;;;;;;;59.80;11.93;;;2.30;97.20;;;;;;5055892;28;20531;-59
2023/03/11 04:41:24;;;;;;;31.13;6.40;;;2.30;97.10;;;;;;5069741;28;20864;-59
2023/03/11 04:43:51;;;;;;;42.23;8.43;;;;;;;;;;5077947;28;20478;-59
2023/03/11 04:46:19;;;;;;;31.50;6.80;;;2.40;97.10;;;;;;5052789;28;20470;-60
2023/03/11 04:48:45;;;;;;;37.50;8.50;;;2.40;97.20;;;;;;5045228;28;20495;-59
2023/03/11 04:51:12;;;;;;;55.20;10.50;;;2.40;97.10;;;;;;5063622;28;20478;-60
2023/03/11 04:53:39;;;;;;;52.33;10.30;;;;;;;;;;5067033;28;20486;-59
2023/03/11 04:56:06;;;;;;;70.10;13.40;;;;;;;;;;5066642;28;20474;-60
2023/03/11 04:58:33;;;;;;;38.30;7.70;;;2.40;97.10;;;;;;5069549;28;20539;-60
2023/03/11 05:01:00;;;;;;;69.70;12.87;;;;;;;;;;5059469;28;20490;-60
2023/03/11 05:03:28;;;;;;;42.40;9.20;;;2.40;96.90;;;;;;5075498;28;20528;-59
2023/03/11 05:05:56;;;;;;;46.07;8.83;;;;;;;;;;5075764;28;20973;-60
2023/03/11 05:08:23;;;;;;;35.67;7.23;;;2.20;97.00;;;;;;5075733;28;20669;-60
2023/03/11 05:10:52;;;;;;;42.93;9.33;;;2.10;97.30;;;;;;5065481;28;21062;-60
2023/03/11 05:13:18;;;;;;;38.37;8.63;;;2.00;97.30;;;;;;5043988;28;20505;-60
2023/03/11 05:15:46;;;;;;;33.43;8.43;;;1.90;97.30;;;;;;5058456;28;20902;-59
2023/03/11 05:18:12;;;;;;;50.07;10.63;;;2.00;97.40;;;;;;5068689;28;20471;-59
2023/03/11 05:20:40;;;;;;;22.43;6.60;;;2.10;97.50;;;;;;5045070;28;20479;-59
2023/03/11 05:23:07;;;;;;;55.47;10.73;;;;;;;;;;5058156;28;20474;-60
2023/03/11 05:25:35;;;;;;;10.60;4.33;;;;;;;;;;5058736;28;20552;-60
2023/03/11 05:28:02;;;;;;;40.07;10.23;;;2.30;97.60;;;;;;5070040;28;20521;-59
2023/03/11 05:30:28;;;;;;;17.03;5.27;;;2.30;97.50;;;;;;5073470;28;20501;-59
2023/03/11 05:32:56;;;;;;;34.50;9.07;;;;;;;;;;5073198;28;20854;-59
2023/03/11 05:35:23;;;;;;;38.00;8.90;;;;;;;;;;5063477;28;20850;-60
2023/03/11 05:37:52;;;;;;;37.20;8.63;;;2.30;97.50;;;;;;5051856;28;20937;-59
2023/03/11 05:40:19;;;;;;;44.20;7.90;;;2.30;97.60;;;;;;5074816;28;20552;-59
2023/03/11 05:42:46;;;;;;;41.33;8.77;;;2.30;97.50;;;;;;5056239;28;20486;-60
2023/03/11 05:45:13;;;;;;;73.90;12.33;;;;;;;;;;5043808;28;20540;-59
2023/03/11 05:47:41;;;;;;;48.87;8.57;;;;;;;;;;5068089;28;20494;-60
2023/03/11 05:50:09;;;;;;;78.13;14.63;;;2.40;97.50;;;;;;5045834;28;21098;-59
2023/03/11 05:52:36;;;;;;;42.33;8.37;;;;;;;;;;5056557;28;20517;-59
2023/03/11 05:55:04;;;;;;;79.63;14.63;;;;;;;;;;5065718;28;20482;-58
2023/03/11 05:57:31;;;;;;;26.37;6.80;;;2.40;97.40;;;;;;5031385;28;20478;-59
2023/03/11 05:59:58;;;;;;;61.93;13.63;;;5.30;98.50;;;;;;5075068;28;20474;-60
2023/03/11 06:02:25;;;;;;;33.73;7.43;;;;;;;;;;5058426;28;20533;-60
2023/03/11 06:04:52;;;;;;;32.70;7.40;;;2.30;97.10;;;;;;5063986;28;20544;-60
2023/03/11 06:07:18;;;;;;;35.40;8.70;;;2.30;97.50;;;;;;5059020;28;20565;-59
2023/03/11 06:09:45;;;;;;;148.07;40.97;;;;;;;;;;5059481;28;20548;-60
2023/03/11 06:12:14;;;;;;;46.20;9.77;;;2.40;97.50;;;;;;5051190;28;20828;-60
2023/03/11 06:14:41;;;;;;;42.53;9.73;;;;;;;;;;5039589;28;20588;-59
2023/03/11 06:17:07;;;;;;;42.60;12.13;;;2.30;97.60;;;;;;5043186;28;20915;-60
2023/03/11 06:19:34;;;;;;;26.53;6.20;;;2.30;97.60;;;;;;5046846;28;21304;-60
2023/03/11 06:22:01;;;;;;;59.73;16.47;;;2.30;97.80;;;;;;5042097;28;20520;-59
2023/03/11 06:24:27;;;;;;;28.20;7.80;;;2.40;97.90;;;;;;5055673;28;20482;-60
2023/03/11 06:26:54;;;;;;;25.53;7.20;;;2.50;97.90;;;;;;5064034;28;20544;-60
2023/03/11 06:29:25;;;;;;;17.23;6.50;;;2.60;98.00;;;;;;5068494;28;20552;-60
2023/03/11 06:31:52;;;;;;;25.83;8.70;;;2.60;98.00;;;;;;5075780;28;20506;-60
2023/03/11 06:34:19;;;;;;;20.27;5.83;;;2.70;97.90;;;;;;5074392;28;20904;-60
2023/03/11 06:36:46;;;;;;;27.50;7.13;;;;;;;;;;5074175;28;20482;-60
2023/03/11 06:39:14;;;;;;;28.77;9.20;;;;;;;;;;5059789;28;20490;-60
2023/03/11 06:41:41;;;;;;;37.47;8.87;;;3.10;98.00;;;;;;5050211;28;20486;-60
2023/03/11 06:44:09;;;;;;;28.13;11.13;;;3.10;97.40;;;;;;5056357;28;21023;-60
2023/03/11 06:46:37;;;;;;;18.73;6.03;;;3.00;97.20;;;;;;5050160;28;21029;-60
2023/03/11 06:49:04;;;;;;;45.33;12.07;;;3.10;97.30;;;;;;5056002;28;20490;-60
2023/03/11 06:51:31;;;;;;;23.53;6.30;;;3.10;97.40;;;;;;5069207;28;20478;-60
2023/03/11 06:53:57;;;;;;;32.10;10.37;;;3.00;97.30;;;;;;5041102;28;20482;-59
2023/03/11 06:56:25;;;;;;;35.13;6.40;;;3.00;97.20;;;;;;5066100;28;20492;-60
2023/03/11 06:58:52;;;;;;;29.90;9.00;;;;;;;;;;5049577;28;20494;-60
2023/03/11 07:01:20;;;;;;;30.23;8.90;;;4.80;99.30;;;;;;5054010;28;21552;-61
2023/03/11 07:03:50;;;;;;;31.57;8.97;;;6.00;96.60;;;;;;5063277;28;20555;-60
2023/03/11 07:06:18;;;;;;;20.80;7.40;;;7.30;96.80;;;;;;5050937;28;20535;-60
2023/03/11 07:08:46;;;;;;;31.83;8.43;;;;;;;;;;5053603;28;20478;-60
2023/03/11 07:11:15;;;;;;;33.73;10.63;;;9.10;93.40;;;;;;5066250;28;20593;-61
2023/03/11 07:13:42;;;;;;;18.13;7.07;;;;;;;;;;5067593;28;21030;-60
2023/03/11 07:16:14;;;;;;;25.00;10.20;;;10.60;90.80;;;;;;5065225;28;20483;-61
2023/03/11 07:18:41;;;;;;;23.80;7.93;;;;;;;;;;5074052;28;20511;-61
2023/03/11 07:21:09;;;;;;;46.67;12.40;;;11.40;88.20;;;;;;5067078;28;20490;-61
2023/03/11 07:23:36;;;;;;;22.90;5.97;;;12.00;87.70;;;;;;5063248;28;20844;-61
2023/03/11 07:26:03;;;;;;;35.53;11.47;;;;;;;;;;5065325;28;20692;-62
2023/03/11 07:28:31;;;;;;;15.83;6.00;;;;;;;;;;5063694;28;20819;-61
2023/03/11 07:30:57;;;;;;;30.80;8.23;;;13.30;84.80;;;;;;5068096;28;20475;-61
2023/03/11 07:33:24;;;;;;;17.97;6.87;;;13.60;81.90;;;;;;5067396;28;20539;-61
2023/03/11 07:35:51;;;;;;;16.10;7.40;;;14.10;80.90;;;;;;5059754;28;20706;-61
2023/03/11 07:38:20;;;;;;;23.87;6.10;;;;;;;;;;5066874;28;20482;-61
2023/03/11 07:40:47;;;;;;;16.07;7.20;;;15.20;80.50;;;;;;5055788;28;21116;-61
2023/03/11 07:43:14;;;;;;;29.77;8.80;;;15.60;76.70;;;;;;5061555;28;20549;-61
2023/03/11 07:45:40;;;;;;;33.03;7.00;;;15.70;76.00;;;;;;5070851;28;20520;-61
2023/03/11 07:48:07;;;;;;;38.33;11.53;;;16.00;76.20;;;;;;5067892;28;20490;-61
2023/03/11 07:50:34;;;;;;;22.47;6.03;;;16.30;72.40;;;;;;5058752;28;20759;-62
2023/03/11 07:53:00;;;;;;;22.00;7.13;;;16.20;68.50;;;;;;5070280;28;20803;-61
2023/03/11 07:55:28;;;;;;;20.63;4.73;;;16.40;71.60;;;;;;5056803;28;20497;-61
2023/03/11 07:57:55;;;;;;;16.33;6.40;;;16.70;73.30;;;;;;5059724;28;20512;-61
2023/03/11 08:00:22;;;;;;;25.37;6.70;;;16.90;69.60;;;;;;5056557;28;20486;-61
2023/03/11 08:02:49;;;;;;;25.03;7.97;;;16.90;68.90;;;;;;5063778;28;20486;-62
2023/03/11 08:05:17;;;;;;;19.20;7.50;;;16.90;69.60;;;;;;5055417;28;20481;-61
2023/03/11 08:07:46;;;;;;;30.23;7.67;;;17.00;70.00;;;;;;5049163;28;20585;-61
2023/03/11 08:10:13;;;;;;;27.13;8.63;;;16.80;68.40;;;;;;5065465;28;20718;-61
2023/03/11 08:12:41;;;;;;;25.17;8.50;;;;;;;;;;5069445;28;20479;-61
2023/03/11 08:15:10;;;;;;;23.03;6.83;;;16.40;67.80;;;;;;5061491;28;20486;-61
2023/03/11 08:17:37;;;;;;;15.00;4.87;;;15.80;65.40;;;;;;5079582;28;20478;-61
2023/03/11 08:20:07;;;;;;;17.30;7.03;;;15.30;67.50;;;;;;5065970;28;20486;-61
2023/03/11 08:22:34;;;;;;;16.30;6.93;;;14.90;67.40;;;;;;5038974;28;20477;-61
2023/03/11 08:25:01;;;;;;;19.27;6.80;;;14.50;68.80;;;;;;5061303;28;20483;-61
2023/03/11 08:27:28;;;;;;;18.63;4.57;;;;;;;;;;5069701;28;20550;-61
2023/03/11 08:29:57;;;;;;;14.07;6.87;;;13.80;69.00;;;;;;5065176;28;20489;-61
2023/03/11 08:32:24;;;;;;;26.63;8.10;;;13.20;70.50;;;;;;5084267;28;20540;-61
2023/03/11 08:34:51;;;;;;;24.47;6.93;;;13.00;71.30;;;;;;5075290;28;20486;-61
2023/03/11 08:37:17;;;;;;;15.77;5.53;;;12.90;73.00;;;;;;5075618;28;20483;-61
2023/03/11 08:39:44;;;;;;;15.23;6.00;;;;;;;;;;5081951;28;20473;-61
2023/03/11 08:42:12;;;;;;;30.50;10.60;;;;;;;;;;5076248;28;20597;-61
2023/03/11 08:44:39;;;;;;;28.33;6.43;;;15.00;72.30;;;;;;5088445;28;20485;-61
2023/03/11 08:47:07;;;;;;;25.40;9.97;;;12.40;72.70;;;;;;5091357;28;20851;-60
2023/03/11 08:49:33;;;;;;;23.17;5.27;;;12.10;68.40;;;;;;5075394;28;20551;-61
2023/03/11 08:52:01;;;;;;;31.97;11.07;;;11.90;67.40;;;;;;5051720;28;20481;-60
2023/03/11 08:54:28;;;;;;;16.77;4.40;;;11.60;68.20;;;;;;5062679;28;20477;-61
2023/03/11 08:56:55;;;;;;;21.60;5.03;;;11.30;70.30;;;;;;5093914;28;20485;-61
2023/03/11 08:59:21;;;;;;;20.63;6.17;;;11.30;71.90;;;;;;5064601;28;20465;-61
2023/03/11 09:01:48;;;;;;;25.50;6.13;;;11.30;73.10;;;;;;5088583;28;20490;-61
2023/03/11 09:04:16;;;;;;;21.10;6.00;;;11.40;71.40;;;;;;5063966;28;20491;-61
2023/03/11 09:06:44;;;;;;;17.03;5.53;;;11.50;71.10;;;;;;5058976;28;20491;-61
2023/03/11 09:09:11;;;;;;;43.03;10.50;;;11.60;70.90;;;;;;5061081;28;20539;-61
2023/03/11 09:11:38;;;;;;;38.03;7.37;;;11.70;70.40;;;;;;5068345;28;20497;-60
2023/03/11 09:14:05;;;;;;;49.87;10.50;;;;;;;;;;5082910;28;20700;-61
2023/03/11 09:16:32;;;;;;;31.57;5.30;;;;;;;;;;5066743;28;20483;-61
2023/03/11 09:19:02;;;;;;;39.10;9.60;;;11.30;69.30;;;;;;5094927;28;20477;-61
2023/03/11 09:21:31;;;;;;;26.23;6.17;;;;;;;;;;5083468;28;20693;-61
2023/03/11 09:23:57;;;;;;;47.10;10.40;;;10.80;69.40;;;;;;5083957;28;20536;-60
2023/03/11 09:26:24;;;;;;;23.87;6.67;;;10.90;69.20;;;;;;5063329;28;20489;-61
2023/03/11 09:28:51;;;;;;;22.63;5.53;;;10.90;67.20;;;;;;5078993;28;20500;-60
2023/03/11 09:31:18;;;;;;;24.03;6.00;;;10.90;64.40;;;;;;5089523;28;20486;-59
2023/03/11 09:33:46;;;;;;;37.63;7.60;;;;;;;;;;5063874;28;20585;-60
2023/03/11 09:36:13;;;;;;;23.90;6.67;;;10.80;68.00;;;;;;5038931;28;21182;-60
2023/03/11 09:38:42;;;;;;;29.23;7.93;;;10.90;69.40;;;;;;5055326;28;20487;-60
2023/03/11 09:41:14;;;;;;;32.20;8.30;;;;;;;;;;5081989;28;20482;-60
2023/03/11 09:43:51;;;;;;;19.20;7.63;;;11.00;67.70;;;;;;5052901;28;20534;-60
2023/03/11 09:46:36;;;;;;;19.87;5.03;;;11.20;68.20;;;;;;5064228;28;20539;-59
2023/03/11 09:49:09;;;;;;;19.23;7.00;;;11.30;69.40;;;;;;5049824;28;20571;-60
2023/03/11 09:51:42;;;;;;;20.20;4.87;;;11.10;67.80;;;;;;5066409;28;20970;-60
2023/03/11 09:54:12;;;;;;;42.97;11.10;;;10.80;68.40;;;;;;5074230;28;20552;-60
2023/03/11 09:56:39;;;;;;;20.80;5.93;;;10.70;70.80;;;;;;5064986;28;20487;-60
2023/03/11 09:59:13;;;;;;;33.37;7.90;;;10.40;67.50;;;;;;5071542;28;21030;-60
2023/03/11 10:01:42;;;;;;;25.97;6.57;;;10.40;70.60;;;;;;5062108;28;20497;-60
2023/03/11 10:04:14;;;;;;;50.70;10.30;;;10.60;72.90;;;;;;5066796;28;20483;-60
2023/03/11 10:06:44;;;;;;;29.67;5.70;;;10.60;67.20;;;;;;5064314;28;20482;-60
2023/03/11 10:09:28;;;;;;;42.67;11.30;;;10.70;71.20;;;;;;5049625;28;20493;-61
2023/03/11 10:12:12;;;;;;;19.73;6.00;;;10.90;70.00;;;;;;5066520;28;20552;-61
2023/03/11 10:14:54;;;;;;;26.10;6.37;;;11.00;68.50;;;;;;5043863;28;21120;-60
2023/03/11 10:17:34;;;;;;;22.50;5.83;;;;;;;;;;5075244;28;21246;-61
2023/03/11 10:20:08;;;;;;;31.17;7.10;;;11.20;65.10;;;;;;5072828;28;20523;-60
2023/03/11 10:22:38;;;;;;;15.80;5.33;;;;;;;;;;5069164;28;20516;-60
2023/03/11 10:25:10;;;;;;;35.07;11.10;;;;;;;;;;5087241;28;20705;-60
2023/03/11 10:27:39;;;;;;;18.97;6.30;;;;;;;;;;5063647;28;20479;-61
2023/03/11 10:30:13;;;;;;;25.73;9.23;;;11.40;71.30;;;;;;5072505;28;21050;-61
2023/03/11 10:32:42;;;;;;;20.53;5.53;;;;;;;;;;5073549;28;21001;-61
2023/03/11 10:35:18;;;;;;;24.93;9.00;;;11.20;68.80;;;;;;5068731;28;20478;-61
2023/03/11 10:37:51;;;;;;;20.47;6.17;;;11.00;69.10;;;;;;5088988;28;20539;-61
2023/03/11 10:40:28;;;;;;;32.13;8.47;;;10.80;68.80;;;;;;5049705;28;20478;-61
2023/03/11 10:42:56;;;;;;;16.63;6.20;;;10.50;70.00;;;;;;5032329;28;20501;-60
2023/03/11 10:45:24;;;;;;;17.70;4.83;;;;;;;;;;5077985;28;20543;-60
2023/03/11 10:47:50;;;;;;;17.43;5.30;;;10.20;69.70;;;;;;5055971;28;20487;-60
2023/03/11 10:50:19;;;;;;;25.93;6.67;;;10.00;67.50;;;;;;5063869;28;20493;-61
2023/03/11 10:53:05;;;;;;;26.53;5.80;;;10.10;69.00;;;;;;5065248;28;20486;-60
2023/03/11 10:55:33;;;;;;;19.67;3.50;;;10.20;68.90;;;;;;5064117;28;20623;-61
2023/03/11 10:58:10;;;;;;;25.13;8.97;;;10.40;66.80;;;;;;5071749;28;21298;-61
2023/03/11 11:00:37;;;;;;;19.60;5.00;;;10.50;67.10;;;;;;5071902;28;20501;-60
2023/03/11 11:03:05;;;;;;;33.00;8.23;;;10.70;66.40;;;;;;5070543;28;20896;-61
2023/03/11 11:05:33;;;;;;;33.90;12.27;;;;;;;;;;5058015;28;20483;-60
2023/03/11 11:08:06;;;;;;;18.47;6.47;;;10.50;67.00;;;;;;5042761;28;20814;-61
2023/03/11 11:10:36;;;;;;;16.97;8.00;;;10.30;69.20;;;;;;5062450;28;20986;-60
2023/03/11 11:13:17;;;;;;;33.87;14.73;;;10.40;68.10;;;;;;5046824;28;20881;-60
2023/03/11 11:15:52;;;;;;;33.37;6.77;;;;;;;;;;5068606;28;20539;-60
2023/03/11 11:18:22;;;;;;;24.03;8.63;;;10.70;71.30;;;;;;5068876;28;20505;-60
2023/03/11 11:20:54;;;;;;;22.07;5.40;;;;;;;;;;5056324;28;21198;-60
2023/03/11 11:23:26;;;;;;;24.57;7.87;;;10.20;60.70;;;;;;5059925;28;21020;-60
2023/03/11 11:25:58;;;;;;;34.37;7.90;;;10.00;66.00;;;;;;5037701;28;20947;-59
2023/03/11 11:28:25;;;;;;;17.23;4.67;;;9.90;68.90;;;;;;5072363;28;20478;-60
2023/03/11 11:30:53;;;;;;;22.83;5.97;;;;;;;;;;5083486;28;20538;-61
2023/03/11 11:33:24;;;;;;;23.27;8.90;;;10.40;68.20;;;;;;5046022;28;20502;-61
2023/03/11 11:35:52;;;;;;;27.23;7.80;;;;;;;;;;5065811;28;20490;-61
2023/03/11 11:38:22;;;;;;;33.43;7.93;;;11.00;69.20;;;;;;5051883;28;20483;-60
2023/03/11 11:40:50;;;;;;;22.73;6.90;;;10.90;64.90;;;;;;5046475;28;20514;-61
2023/03/11 11:43:19;;;;;;;31.37;10.60;;;11.10;66.70;;;;;;5053997;28;20486;-60
2023/03/11 11:45:49;;;;;;;20.33;6.80;;;11.00;60.30;;;;;;5068265;28;20518;-61
2023/03/11 11:48:20;;;;;;;35.57;5.60;;;10.70;64.70;;;;;;5023994;28;20560;-61
2023/03/11 11:50:49;;;;;;;17.57;5.43;;;;;;;;;;5064158;28;20792;-61
2023/03/11 11:53:28;;;;;;;36.63;14.10;;;10.90;64.60;;;;;;5059572;28;20516;-61
2023/03/11 11:55:54;;;;;;;25.03;9.00;;;10.80;61.80;;;;;;5061117;28;21058;-61
2023/03/11 11:58:22;;;;;;;25.77;6.90;;;10.40;59.20;;;;;;5044537;28;20810;-61
2023/03/11 12:00:54;;;;;;;17.43;5.13;;;;;;;;;;5042702;28;21224;-61
2023/03/11 12:03:54;;;;;;;28.97;9.13;;;10.10;63.20;;;;;;5038025;28;20490;-61
2023/03/11 12:06:26;;;;;;;20.80;6.30;;;9.70;64.90;;;;;;5050957;28;20869;-61
2023/03/11 12:09:04;;;;;;;23.70;7.63;;;9.50;64.60;;;;;;5058847;28;20486;-61
2023/03/11 12:11:38;;;;;;;16.13;5.03;;;9.50;65.90;;;;;;5060198;28;20853;-61
2023/03/11 12:14:09;;;;;;;32.33;12.90;;;;;;;;;;5032662;28;21726;-61
2023/03/11 12:16:41;;;;;;;11.00;2.50;;;10.10;65.30;;;;;;5057860;28;20474;-61
2023/03/11 12:19:19;;;;;;;30.77;11.10;;;10.20;63.40;;;;;;5061714;28;20647;-61
2023/03/11 12:22:04;;;;;;;12.00;4.70;;;;;;;;;;5032519;28;20467;-61
2023/03/11 12:24:39;;;;;;;22.33;4.77;;;;;;;;;;5043846;28;20483;-61
2023/03/11 12:27:11;;;;;;;29.47;9.63;;;;;;;;;;5051733;28;21065;-61
2023/03/11 12:29:42;;;;;;;23.27;7.57;;;;;;;;;;5060824;28;20482;-61
2023/03/11 12:32:28;;;;;;;32.53;10.93;;;10.40;61.60;;;;;;5052188;28;20904;-61
2023/03/11 12:34:55;;;;;;;19.60;7.60;;;;;;;;;;5058247;28;20479;-60
2023/03/11 12:37:23;;;;;;;16.93;6.20;;;;;;;;;;5049378;28;20486;-60
2023/03/11 12:39:49;;;;;;;25.37;6.77;;;9.80;61.90;;;;;;5063097;28;21448;-60
2023/03/11 12:42:18;;;;;;;15.00;5.80;;;10.20;64.30;;;;;;5043688;28;21128;-60
2023/03/11 12:44:48;;;;;;;28.87;6.90;;;10.30;65.50;;;;;;5051587;28;21171;-60
2023/03/11 12:47:26;;;;;;;21.43;6.90;;;10.70;69.80;;;;;;5046447;28;20487;-61
2023/03/11 12:49:54;;;;;;;19.63;5.40;;;11.10;67.20;;;;;;5062671;28;20478;-61
2023/03/11 12:52:28;;;;;;;22.63;5.27;;;11.30;67.10;;;;;;5057185;28;21047;-60
2023/03/11 12:55:14;;;;;;;29.53;7.00;;;;;;;;;;5067135;28;21017;-60
2023/03/11 12:57:52;;;;;;;20.80;7.03;;;11.20;66.40;;;;;;5066504;28;20732;-60
2023/03/11 13:00:29;;;;;;;28.07;8.93;;;11.20;67.50;;;;;;5064128;28;20486;-61
2023/03/11 13:03:15;;;;;;;19.43;7.13;;;;;;;;;;5046628;28;20492;-61
2023/03/11 13:05:49;;;;;;;24.67;6.80;;;;;;;;;;5067635;28;20494;-61
2023/03/11 13:08:19;;;;;;;30.13;7.90;;;10.70;66.10;;;;;;5041627;28;21112;-61
2023/03/11 13:10:47;;;;;;;26.13;7.80;;;10.70;67.70;;;;;;5066784;28;20901;-61
2023/03/11 13:13:24;;;;;;;19.90;6.00;;;;;;;;;;5070098;28;20474;-61
2023/03/11 13:15:52;;;;;;;27.60;7.20;;;10.30;64.00;;;;;;5063314;28;20899;-61
2023/03/11 13:18:24;;;;;;;22.73;7.90;;;10.10;64.30;;;;;;5069269;28;20743;-61